Santanyi, Spain
Current Conditions -  °F | °C
As of 6:30 PM on Friday 19 Dec 2014 (Local Time) from LEPA Reporting Station
Few Clouds Few Clouds  
Wind Chill: 59°   Ceiling: Unl
Heat Index: 59°   Visibility: 6mi
Dew Point: 55°   Wind: 7mph
Humidity: 88%   Direction: 220°SW
Pressure: 30.33"   Gusts: NA
Location:  39.35°N, 3.13°E
Report Text: LEPA 191730Z 22006KT 9999 FEW022 15/13 Q1027 NOSIG
Loading
Personal Weather Stations






























Interactive Weather Map New forecast layout! Learn more

10-Day Weather Forecast

Advertisements
Track Severe Weather on mobile